Main page
METAR-TAF:

METAR-TAF

Airports :

Bou Saada Airport

Bou Saâda, Algeria

latitude: 35-20N, longitude: 004-12E, elevation: 461 m

Current weather observation

The report was made 3 hours and 59 minutes ago, at 18:00 UTC
Wind 6 kt from the South/Southeast
Temperature 25°C
Humidity 47%
Pressure 1015 hPa
Visibility 10 km or more
Few clouds at a height of 2600 ft

METAR: DAAD 211800Z 16006KT 9999 FEW026 25/13 Q1015

Time: 22:59 (21:59 UTC)

Forecast

The report was made 4 hours and 59 minutes ago, at 17:00 UTC
Forecast valid from 21 at 18 UTC to 22 at 03 UTC
Wind 8 kt from the Southeast
Visibility 10 km or more
Few clouds at a height of 2600 ft
Scattered clouds at a height of 10000 ft
Probability 30% :
Temporary
from 21 at 18 UTC to 21 at 21 UTC
Few clouds at a height of 3000 ft, Cumulonimbus.

TAF: DAAD 211700Z 2118/2203 13008KT 9999 FEW026 SCT100 PROB30 TEMPO 2118/2121 FEW030CB

Weather observations and forecasts of more than 4000 airports (METAR and TAF reports).

The available stations are represented by yellow and red dots on the map.

Hover mouse over dot to see the name of the station.

Then click to see weather observations and forecasts.

To change the map : click on the green buttons with a black cross to zoom in, on the green button with a dash to zoom out, or on the green arrows for adjacent maps.


METAR-TAF: